createdAt,value
2022-11-30T00:03:08.735Z,75.12
2022-11-30T00:06:30.290Z,74.93
2022-11-30T00:09:53.235Z,74.82
2022-11-30T00:13:14.891Z,74.94
2022-11-30T00:16:36.568Z,74.81
2022-11-30T00:19:58.184Z,74.81
2022-11-30T00:23:20.503Z,74.79
2022-11-30T00:26:44.148Z,74.65
2022-11-30T00:30:07.195Z,74.55
2022-11-30T00:33:28.996Z,74.78
2022-11-30T00:36:50.704Z,74.80
2022-11-30T00:40:14.194Z,74.68
2022-11-30T00:43:37.555Z,74.90
2022-11-30T00:46:59.147Z,74.66
2022-11-30T00:50:20.559Z,74.58
2022-11-30T00:53:42.682Z,74.67
2022-11-30T00:57:04.335Z,74.83
2022-11-30T01:00:27.671Z,74.61
2022-11-30T01:03:49.220Z,74.74
2022-11-30T01:07:11.079Z,74.77
2022-11-30T01:10:34.298Z,74.56
2022-11-30T01:13:56.758Z,74.77
2022-11-30T01:17:19.698Z,74.70
2022-11-30T01:20:42.602Z,74.81
2022-11-30T01:24:04.231Z,74.81
2022-11-30T01:27:25.840Z,74.59
2022-11-30T01:30:56.328Z,75.01
2022-11-30T01:34:19.499Z,74.85
2022-11-30T01:37:40.956Z,74.71
2022-11-30T01:41:03.220Z,74.65
2022-11-30T01:44:52.342Z,74.86
2022-11-30T01:48:14.063Z,74.85
2022-11-30T01:51:41.468Z,74.43
2022-11-30T01:55:12.924Z,74.44
2022-11-30T01:58:36.661Z,74.90
2022-11-30T02:01:59.388Z,74.96
2022-11-30T02:05:22.304Z,74.69
2022-11-30T02:08:45.590Z,75.08
2022-11-30T02:12:10.139Z,74.82
2022-11-30T02:15:39.420Z,74.97
2022-11-30T02:19:12.695Z,74.76
2022-11-30T02:22:49.710Z,75.05
2022-11-30T02:26:29.082Z,74.66
2022-11-30T02:29:57.510Z,74.69
2022-11-30T02:33:22.431Z,74.75
2022-11-30T02:36:46.874Z,74.22
2022-11-30T02:40:10.488Z,74.83
2022-11-30T02:43:35.219Z,74.57
2022-11-30T02:47:19.621Z,74.82
2022-11-30T02:50:46.987Z,74.46
2022-11-30T02:54:09.426Z,74.78
2022-11-30T02:57:31.008Z,74.47
2022-11-30T03:00:53.043Z,74.76
2022-11-30T03:04:16.152Z,74.96
2022-11-30T03:07:38.297Z,74.82
2022-11-30T03:11:03.154Z,75.26
2022-11-30T03:14:25.052Z,74.94
2022-11-30T03:17:47.004Z,74.97
2022-11-30T03:21:11.835Z,75.07
2022-11-30T03:24:33.500Z,74.93
2022-11-30T03:27:55.458Z,75.24
2022-11-30T03:31:17.090Z,75.03
2022-11-30T03:34:39.034Z,74.90
2022-11-30T03:38:02.323Z,74.79
2022-11-30T03:41:24.251Z,74.85
2022-11-30T03:44:46.209Z,75.15
2022-11-30T03:48:08.142Z,74.56
2022-11-30T03:51:29.871Z,74.93
2022-11-30T03:54:52.590Z,74.94
2022-11-30T03:58:14.553Z,74.78
2022-11-30T04:01:37.030Z,74.88
2022-11-30T04:04:58.613Z,75.06
2022-11-30T04:08:20.042Z,74.82
2022-11-30T04:11:43.338Z,74.99
2022-11-30T04:15:05.580Z,74.74
2022-11-30T04:18:29.119Z,74.92
2022-11-30T04:21:51.555Z,74.86
2022-11-30T04:25:13.596Z,75.27
2022-11-30T04:28:36.930Z,74.99
2022-11-30T04:31:58.663Z,75.16
2022-11-30T04:35:20.611Z,75.34
2022-11-30T04:38:42.680Z,74.91
2022-11-30T04:42:04.757Z,75.62
2022-11-30T04:45:32.480Z,75.42
2022-11-30T04:48:56.770Z,75.36
2022-11-30T04:52:18.693Z,75.71
2022-11-30T04:55:40.451Z,75.32
2022-11-30T04:59:02.826Z,75.07
2022-11-30T05:02:26.279Z,75.12
2022-11-30T05:05:48.482Z,75.10
2022-11-30T05:09:10.549Z,75.11
2022-11-30T05:12:32.650Z,75.55
2022-11-30T05:15:54.671Z,75.02
2022-11-30T05:19:17.462Z,75.19
2022-11-30T05:22:39.275Z,75.01
2022-11-30T05:26:02.811Z,75.20
2022-11-30T05:29:24.687Z,75.23
2022-11-30T05:32:46.625Z,75.28
2022-11-30T05:36:11.175Z,75.54
2022-11-30T05:39:32.963Z,75.13
2022-11-30T05:42:57.673Z,75.40
2022-11-30T05:46:19.241Z,75.98
2022-11-30T05:49:40.662Z,75.40
2022-11-30T05:53:04.066Z,75.42
2022-11-30T05:56:25.813Z,75.14
2022-11-30T05:59:47.715Z,75.53
2022-11-30T06:03:09.350Z,75.36
2022-11-30T06:06:31.242Z,75.42
2022-11-30T06:09:54.543Z,75.02
2022-11-30T06:13:16.516Z,75.59
2022-11-30T06:16:39.604Z,75.36
2022-11-30T06:20:01.397Z,75.36
2022-11-30T06:23:23.521Z,75.68
2022-11-30T06:26:47.311Z,75.81
2022-11-30T06:30:10.611Z,75.73
2022-11-30T06:33:32.484Z,75.41
2022-11-30T06:36:54.046Z,75.49
2022-11-30T06:40:17.150Z,75.04
2022-11-30T06:43:40.919Z,75.41
2022-11-30T06:47:02.517Z,75.08
2022-11-30T06:50:24.414Z,75.09
2022-11-30T06:53:47.237Z,75.76
2022-11-30T06:57:08.814Z,75.13
2022-11-30T07:00:32.107Z,75.16
2022-11-30T07:03:54.390Z,75.62
2022-11-30T07:07:16.101Z,75.27
2022-11-30T07:10:41.748Z,75.62
2022-11-30T07:14:03.186Z,75.30
2022-11-30T07:17:26.562Z,75.32
2022-11-30T07:20:48.555Z,75.50
2022-11-30T07:24:30.470Z,75.25
2022-11-30T07:27:52.113Z,75.82
2022-11-30T07:31:16.937Z,75.78
2022-11-30T07:34:39.972Z,75.62
2022-11-30T07:38:08.195Z,75.11
2022-11-30T07:41:31.501Z,75.64
2022-11-30T07:44:59.149Z,75.42
2022-11-30T07:48:21.993Z,76.08
2022-11-30T07:51:46.592Z,75.56
2022-11-30T07:55:09.554Z,75.77
2022-11-30T07:58:31.975Z,75.67
2022-11-30T08:01:53.898Z,75.65
2022-11-30T08:05:16.146Z,75.62
2022-11-30T08:08:40.912Z,75.65
2022-11-30T08:12:03.046Z,75.46
2022-11-30T08:15:30.757Z,75.53
2022-11-30T08:18:54.363Z,75.47
2022-11-30T08:22:16.094Z,76.02
2022-11-30T08:25:39.732Z,75.50
2022-11-30T08:29:02.652Z,75.32
2022-11-30T08:32:24.226Z,75.71
2022-11-30T08:35:46.700Z,75.54
2022-11-30T08:39:10.162Z,75.54
2022-11-30T08:42:33.576Z,75.31
2022-11-30T08:45:57.347Z,75.40
2022-11-30T08:49:23.012Z,75.66
2022-11-30T08:52:45.590Z,75.17
2022-11-30T08:56:09.658Z,75.46
2022-11-30T08:59:33.661Z,75.28
2022-11-30T09:02:55.305Z,75.06
2022-11-30T09:06:18.969Z,74.78
2022-11-30T09:09:40.506Z,75.17
2022-11-30T09:13:02.645Z,75.20
2022-11-30T09:16:27.448Z,75.02
2022-11-30T09:19:49.369Z,75.35
2022-11-30T09:23:11.288Z,75.09
2022-11-30T09:26:33.207Z,75.38
2022-11-30T09:29:55.047Z,75.40
2022-11-30T09:33:18.466Z,75.36
2022-11-30T09:36:40.478Z,75.05
2022-11-30T09:40:02.639Z,75.43
2022-11-30T09:43:35.471Z,75.03
2022-11-30T09:47:05.538Z,75.09
2022-11-30T09:50:33.059Z,74.72
2022-11-30T09:53:58.266Z,74.93
2022-11-30T09:57:27.024Z,76.00
2022-11-30T10:00:49.047Z,76.11
2022-11-30T10:04:22.235Z,75.83
2022-11-30T10:08:03.574Z,75.01
2022-11-30T10:11:44.688Z,74.79
2022-11-30T10:15:21.861Z,74.38
2022-11-30T10:18:54.113Z,73.90
2022-11-30T10:22:27.659Z,74.31
2022-11-30T10:25:56.940Z,73.94
2022-11-30T10:29:21.285Z,73.78
2022-11-30T10:32:47.318Z,73.86
2022-11-30T10:36:14.689Z,73.50
2022-11-30T10:39:44.192Z,73.47
2022-11-30T10:43:18.671Z,73.30
2022-11-30T10:46:46.712Z,73.29
2022-11-30T10:50:09.566Z,72.94
2022-11-30T10:53:33.280Z,73.11
2022-11-30T10:56:55.566Z,73.29
2022-11-30T11:00:19.322Z,73.08
2022-11-30T11:03:41.422Z,72.98
2022-11-30T11:07:10.477Z,72.58
2022-11-30T11:10:36.538Z,72.47
2022-11-30T11:14:17.447Z,72.46
2022-11-30T11:17:40.288Z,72.19
2022-11-30T11:21:07.502Z,72.64
2022-11-30T11:24:29.521Z,72.58
2022-11-30T11:27:54.245Z,72.33
2022-11-30T11:31:26.336Z,72.20
2022-11-30T11:34:51.528Z,72.30
2022-11-30T11:38:21.805Z,72.19
2022-11-30T11:41:43.670Z,72.38
2022-11-30T11:45:07.255Z,72.60
2022-11-30T11:48:36.511Z,72.45
2022-11-30T11:52:04.041Z,72.48
2022-11-30T11:55:26.086Z,72.21
2022-11-30T11:58:52.315Z,72.44
2022-11-30T12:02:28.630Z,72.22
2022-11-30T12:05:54.415Z,72.26
2022-11-30T12:09:23.186Z,72.01
2022-11-30T12:12:49.475Z,72.11
2022-11-30T12:16:31.745Z,71.96
2022-11-30T12:20:01.877Z,71.85
2022-11-30T12:23:42.067Z,71.59
2022-11-30T12:27:15.684Z,71.74
2022-11-30T12:30:43.752Z,71.63
2022-11-30T12:34:14.024Z,71.51
2022-11-30T12:37:49.322Z,71.46
2022-11-30T12:41:26.488Z,71.24
2022-11-30T12:44:55.944Z,71.30
2022-11-30T12:48:29.404Z,71.03
2022-11-30T12:51:59.534Z,71.13
2022-11-30T12:55:29.911Z,71.13
2022-11-30T12:58:58.182Z,71.28
2022-11-30T13:02:46.058Z,71.65
2022-11-30T13:06:13.028Z,71.52
2022-11-30T13:09:38.521Z,71.59
2022-11-30T13:13:04.464Z,71.58
2022-11-30T13:16:27.557Z,71.83
2022-11-30T13:19:59.863Z,72.02
2022-11-30T13:23:32.608Z,71.72
2022-11-30T13:27:00.285Z,71.61
2022-11-30T13:30:39.883Z,71.31
2022-11-30T13:34:02.199Z,72.45
2022-11-30T13:37:28.717Z,71.13
2022-11-30T13:40:58.659Z,70.93
2022-11-30T13:44:32.579Z,70.95
2022-11-30T13:47:55.651Z,71.06
2022-11-30T13:51:35.316Z,71.10
2022-11-30T13:54:58.603Z,71.75
2022-11-30T13:58:21.432Z,71.95
2022-11-30T14:01:43.549Z,72.77
2022-11-30T14:05:26.392Z,72.63
2022-11-30T14:08:49.054Z,72.23
2022-11-30T14:12:55.974Z,72.99
2022-11-30T14:16:27.377Z,72.95
2022-11-30T14:19:52.172Z,72.45
2022-11-30T14:23:16.433Z,72.54
2022-11-30T14:26:43.666Z,72.87
2022-11-30T14:30:07.064Z,73.02
2022-11-30T14:33:39.342Z,73.44
2022-11-30T14:37:06.367Z,73.60
2022-11-30T14:40:31.071Z,73.45
2022-11-30T14:44:04.507Z,73.36
2022-11-30T14:47:28.263Z,74.35
2022-11-30T14:50:53.767Z,73.92
2022-11-30T14:54:32.429Z,74.25
2022-11-30T14:58:07.100Z,74.05
2022-11-30T15:01:33.090Z,74.22
2022-11-30T15:04:56.727Z,74.36
2022-11-30T15:08:21.052Z,74.20
2022-11-30T15:11:44.196Z,74.16
2022-11-30T15:15:14.679Z,73.95
2022-11-30T15:18:40.511Z,74.22
2022-11-30T15:22:02.347Z,74.58
2022-11-30T15:25:31.920Z,74.21
2022-11-30T15:28:59.240Z,74.65
2022-11-30T15:32:25.466Z,74.85
2022-11-30T15:36:15.861Z,74.79
2022-11-30T15:39:31.051Z,74.75
2022-11-30T15:42:54.432Z,74.86
2022-11-30T15:46:29.528Z,74.66
2022-11-30T15:49:53.914Z,75.35
2022-11-30T15:53:26.417Z,74.86
2022-11-30T15:56:57.832Z,74.81
2022-11-30T16:00:22.842Z,74.80
2022-11-30T16:04:05.832Z,75.05
2022-11-30T16:07:32.031Z,74.84
2022-11-30T16:10:55.047Z,74.96
2022-11-30T16:14:17.876Z,74.75
2022-11-30T16:17:41.964Z,74.40
2022-11-30T16:21:04.367Z,74.36
2022-11-30T16:24:25.979Z,74.67
2022-11-30T16:27:48.111Z,74.23
2022-11-30T16:31:17.298Z,74.52
2022-11-30T16:34:40.551Z,75.02
2022-11-30T16:38:02.569Z,75.09
2022-11-30T16:41:26.654Z,74.70
2022-11-30T16:44:48.343Z,74.60
2022-11-30T16:48:09.803Z,75.04
2022-11-30T16:51:34.741Z,75.30
2022-11-30T16:54:56.729Z,75.17
2022-11-30T16:58:18.839Z,75.71
2022-11-30T17:01:43.225Z,75.32
2022-11-30T17:05:05.533Z,75.44
2022-11-30T17:08:28.928Z,75.42
2022-11-30T17:11:51.741Z,75.13
2022-11-30T17:15:17.523Z,74.41
2022-11-30T17:18:39.210Z,74.87
2022-11-30T17:22:01.112Z,75.34
2022-11-30T17:25:25.326Z,74.93
2022-11-30T17:28:47.651Z,75.62
2022-11-30T17:32:09.737Z,75.27
2022-11-30T17:35:31.795Z,75.30
2022-11-30T17:38:53.864Z,75.46
2022-11-30T17:42:17.454Z,75.14
2022-11-30T17:45:41.227Z,75.37
2022-11-30T17:49:02.735Z,75.17
2022-11-30T17:52:24.786Z,75.34
2022-11-30T17:55:46.832Z,75.64
2022-11-30T17:59:09.890Z,75.38
2022-11-30T18:02:31.433Z,75.29
2022-11-30T18:05:53.096Z,75.82
2022-11-30T18:09:15.075Z,75.89
2022-11-30T18:12:37.235Z,75.59
2022-11-30T18:16:10.619Z,75.94
2022-11-30T18:19:32.613Z,76.71
2022-11-30T18:22:54.688Z,76.84
2022-11-30T18:26:17.835Z,76.72
2022-11-30T18:29:39.944Z,76.52
2022-11-30T18:33:03.425Z,76.08
2022-11-30T18:36:25.407Z,76.50
2022-11-30T18:39:47.070Z,76.47
2022-11-30T18:43:09.182Z,76.75
2022-11-30T18:46:31.243Z,76.60
2022-11-30T18:49:55.994Z,76.22
2022-11-30T18:53:18.614Z,76.59
2022-11-30T18:56:40.416Z,76.27
2022-11-30T19:00:02.047Z,76.21
2022-11-30T19:03:23.807Z,76.60
2022-11-30T19:06:46.977Z,76.91
2022-11-30T19:10:10.233Z,75.92
2022-11-30T19:13:32.314Z,76.47
2022-11-30T19:16:53.931Z,76.52
2022-11-30T19:20:16.024Z,76.17
2022-11-30T19:23:40.179Z,76.14
2022-11-30T19:27:02.116Z,76.40
2022-11-30T19:30:26.329Z,76.11
2022-11-30T19:33:50.273Z,76.00
2022-11-30T19:37:11.934Z,75.99
2022-11-30T19:40:35.280Z,76.16
2022-11-30T19:44:03.111Z,76.24
2022-11-30T19:47:25.471Z,77.06
2022-11-30T19:50:47.354Z,76.13
2022-11-30T19:54:09.164Z,76.31
2022-11-30T19:57:32.502Z,76.36
2022-11-30T20:00:54.069Z,76.37
2022-11-30T20:04:16.004Z,76.05
2022-11-30T20:07:37.937Z,76.00
2022-11-30T20:10:59.889Z,76.38
2022-11-30T20:14:23.599Z,75.57
2022-11-30T20:17:45.638Z,76.63
2022-11-30T20:21:12.784Z,75.98
2022-11-30T20:24:34.634Z,76.27
2022-11-30T20:27:56.338Z,76.09
2022-11-30T20:31:22.062Z,75.99
2022-11-30T20:34:44.779Z,76.09
2022-11-30T20:38:06.663Z,75.88
2022-11-30T20:41:28.638Z,76.71
2022-11-30T20:44:50.916Z,76.26
2022-11-30T20:48:14.413Z,76.39
2022-11-30T20:51:36.094Z,75.87
2022-11-30T20:54:57.570Z,75.74
2022-11-30T20:58:19.020Z,76.05
2022-11-30T21:01:42.524Z,76.46
2022-11-30T21:05:06.434Z,76.45
2022-11-30T21:08:28.472Z,76.28
2022-11-30T21:11:50.426Z,76.30
2022-11-30T21:15:12.494Z,76.32
2022-11-30T21:18:34.482Z,75.87
2022-11-30T21:21:59.271Z,75.43
2022-11-30T21:25:20.890Z,76.29
2022-11-30T21:28:42.878Z,75.91
2022-11-30T21:32:04.473Z,75.96
2022-11-30T21:35:26.492Z,75.85
2022-11-30T21:38:53.679Z,75.66
2022-11-30T21:42:15.700Z,75.96
2022-11-30T21:45:37.347Z,75.79
2022-11-30T21:48:59.209Z,75.52
2022-11-30T21:52:21.139Z,75.98
2022-11-30T21:55:44.058Z,75.92
2022-11-30T21:59:07.736Z,76.03
2022-11-30T22:02:29.943Z,76.00
2022-11-30T22:06:02.134Z,76.07
2022-11-30T22:09:23.608Z,76.17
2022-11-30T22:12:46.811Z,75.77
2022-11-30T22:16:11.187Z,75.91
2022-11-30T22:19:33.062Z,76.27
2022-11-30T22:22:54.718Z,75.88
2022-11-30T22:26:18.592Z,76.33
2022-11-30T22:29:41.462Z,76.53
2022-11-30T22:33:03.186Z,76.51
2022-11-30T22:36:26.541Z,75.81
2022-11-30T22:39:48.663Z,76.09
2022-11-30T22:43:10.216Z,76.36
2022-11-30T22:46:35.294Z,76.18
2022-11-30T22:49:57.072Z,75.66
2022-11-30T22:53:18.963Z,75.44
2022-11-30T22:56:42.094Z,76.42
2022-11-30T23:00:04.901Z,75.66
2022-11-30T23:03:28.982Z,75.43
2022-11-30T23:06:51.102Z,75.70
2022-11-30T23:10:14.798Z,75.27
2022-11-30T23:13:37.295Z,75.66
2022-11-30T23:16:59.215Z,75.53
2022-11-30T23:20:23.105Z,75.72
2022-11-30T23:23:45.850Z,75.90
2022-11-30T23:27:07.730Z,75.93
2022-11-30T23:30:29.798Z,76.27
2022-11-30T23:33:52.898Z,75.88
2022-11-30T23:37:16.311Z,76.07
2022-11-30T23:40:38.251Z,76.01
2022-11-30T23:44:00.105Z,75.91
2022-11-30T23:47:22.043Z,76.12
2022-11-30T23:50:43.924Z,76.00
2022-11-30T23:54:07.387Z,75.90
2022-11-30T23:57:29.359Z,76.10
